Time;durP1;ratioP1;P1;durP2;ratioP2;P2;SDS_P1;SDS_P2;PMS_P1;PMS_P2;Temp;Humidity;BMP_temperature;BMP_pressure;BME280_temperature;BME280_humidity;BME280_pressure;Samples;Min_cycle;Max_cycle;Signal;HPM_P1;HPM_P2
2022/10/15 00:01:04;;;;;;;355.10;52.63;;;;;;;11.43;100.00;68037.78;4964969;28;20054;-77
2022/10/15 00:03:29;;;;;;;321.90;50.42;;;;;;;11.41;100.00;68036.09;4936913;28;20398;-77
2022/10/15 00:05:54;;;;;;;419.88;58.10;;;;;;;;;;4940618;28;20047;-76
2022/10/15 00:08:19;;;;;;;448.88;57.95;;;;;;;;;;4951538;28;20130;-77
2022/10/15 00:10:45;;;;;;;406.15;55.63;;;;;;;;;;4952194;28;20399;-78
2022/10/15 00:13:10;;;;;;;310.20;49.77;;;;;;;;;;4951966;28;20067;-78
2022/10/15 00:15:36;;;;;;;324.27;53.55;;;;;;;;;;4952062;28;20283;-78
2022/10/15 00:18:01;;;;;;;353.20;53.22;;;;;;;;;;4934566;29;20039;-78
2022/10/15 00:20:26;;;;;;;439.38;56.08;;;;;;;11.23;100.00;68013.00;4952313;28;20049;-77
2022/10/15 00:22:52;;;;;;;409.35;51.40;;;;;;;11.19;100.00;68011.09;4948440;28;20479;-77
2022/10/15 00:25:17;;;;;;;295.00;44.58;;;;;;;;;;4934083;28;20037;-79
2022/10/15 00:27:42;;;;;;;370.27;53.50;;;;;;;;;;4939346;29;20467;-78
2022/10/15 00:30:08;;;;;;;270.45;46.20;;;;;;;11.14;100.00;68006.00;4950997;28;20047;-77
2022/10/15 00:32:34;;;;;;;233.70;44.53;;;;;;;11.13;100.00;67998.97;4934007;28;20043;-78
2022/10/15 00:34:59;;;;;;;257.05;45.10;;;;;;;;;;4951761;28;20035;-78
2022/10/15 00:37:24;;;;;;;391.33;47.83;;;;;;;11.12;100.00;68003.72;4951065;28;20095;-77
2022/10/15 00:39:50;;;;;;;370.40;48.50;;;;;;;11.12;100.00;68003.16;4934103;29;20668;-77
2022/10/15 00:42:16;;;;;;;328.85;49.42;;;;;;;11.13;100.00;68010.19;4950209;28;20233;-77
2022/10/15 00:44:50;;;;;;;314.98;47.85;;;;;;;11.12;100.00;68000.50;4951049;28;20146;-77
2022/10/15 00:47:34;;;;;;;288.23;45.85;;;;;;;11.09;100.00;67999.75;4932904;28;20383;-77
2022/10/15 00:50:07;;;;;;;345.67;51.28;;;;;;;11.07;100.00;67998.03;4947980;28;20060;-77
2022/10/15 00:52:38;;;;;;;292.13;43.05;;;;;;;11.06;100.00;67997.47;4951603;28;20102;-76
2022/10/15 00:55:18;;;;;;;321.55;47.45;;;;;;;11.04;100.00;67995.22;4949266;28;20047;-77
2022/10/15 00:57:43;;;;;;;300.38;47.97;;;;;;;;;;4953824;28;20047;-76
2022/10/15 01:00:10;;;;;;;239.70;45.40;;;;;;;;;;4960069;28;20042;-78
2022/10/15 01:02:35;;;;;;;364.88;50.20;;;;;;;10.97;100.00;67981.94;4934636;28;20158;-76
2022/10/15 01:05:01;;;;;;;359.80;50.33;;;;;;;10.99;100.00;67989.56;4951963;28;20562;-78
2022/10/15 01:07:26;;;;;;;230.80;38.42;;;;;;;10.97;100.00;67984.59;4949860;28;20039;-77
2022/10/15 01:09:52;;;;;;;320.55;45.25;;;;;;;10.94;100.00;67983.88;4964394;28;20741;-76
2022/10/15 01:12:50;;;;;;;293.98;40.38;;;;;;;10.95;100.00;67984.44;4956243;28;20039;-76
2022/10/15 01:15:40;;;;;;;310.20;45.53;;;;;;;10.91;100.00;67980.47;4957871;28;20052;-77
2022/10/15 01:18:17;;;;;;;263.33;49.13;;;;;;;;;;4916379;28;20055;-77
2022/10/15 01:20:51;;;;;;;285.38;51.35;;;;;;;10.92;100.00;67986.34;4963594;28;20514;-77
2022/10/15 01:23:29;;;;;;;378.00;54.90;;;;;;;;;;4951938;28;20384;-76
2022/10/15 01:26:10;;;;;;;238.77;41.10;;;;;;;;;;4950791;28;20050;-76
2022/10/15 01:28:57;;;;;;;393.75;53.50;;;;;;;10.87;100.00;67975.91;4950030;28;20102;-76
2022/10/15 01:31:41;;;;;;;280.95;50.83;;;;;;;10.87;100.00;67975.91;4950682;28;20051;-77
2022/10/15 01:34:28;;;;;;;399.60;66.38;;;;;;;10.89;100.00;67974.97;4951004;28;20074;-77
2022/10/15 01:37:02;;;;;;;322.63;56.30;;;;;;;10.88;100.00;67974.41;4964085;28;20054;-77
2022/10/15 01:39:32;;;;;;;330.23;52.83;;;;;;;10.88;100.00;67982.38;4950042;29;20054;-76
2022/10/15 01:42:02;;;;;;;260.20;45.08;;;;;;;;;;4950309;28;20163;-77
2022/10/15 01:44:35;;;;;;;302.90;47.60;;;;;;;10.89;100.00;67978.19;4950188;28;20499;-77
2022/10/15 01:47:05;;;;;;;244.88;47.95;;;;;;;;;;4933069;29;20265;-76
2022/10/15 01:49:37;;;;;;;291.58;48.22;;;;;;;10.86;100.00;67974.78;4933165;28;20058;-77
2022/10/15 01:52:07;;;;;;;238.10;43.00;;;;;;;;;;4950601;28;20039;-76
2022/10/15 01:54:34;;;;;;;308.90;46.85;;;;;;;10.85;100.00;67973.66;4932887;29;20402;-77
2022/10/15 02:07:38;;;;;;;259.70;51.13;;;;;;;10.76;100.00;67963.44;5887337;23;20047;-77
2022/10/15 02:10:11;;;;;;;314.70;51.78;;;;;;;;;;4960003;28;20057;-78
2022/10/15 02:12:55;;;;;;;330.73;53.58;;;;;;;;;;4973012;28;20053;-79
2022/10/15 02:15:40;;;;;;;287.23;53.15;;;;;;;;;;4981110;28;20035;-77
2022/10/15 02:18:17;;;;;;;361.85;60.45;;;;;;;10.73;100.00;67957.94;4948985;28;20089;-78
2022/10/15 02:20:42;;;;;;;435.38;64.20;;;;;;;;;;4972486;28;20416;-79
2022/10/15 02:23:20;;;;;;;318.60;57.20;;;;;;;10.69;100.00;67960.81;4971719;28;20042;-76
2022/10/15 02:25:48;;;;;;;442.42;64.10;;;;;;;10.66;100.00;67957.41;4971856;28;20290;-79
2022/10/15 02:28:14;;;;;;;370.65;59.05;;;;;;;;;;4972046;28;20070;-79
2022/10/15 02:30:40;;;;;;;212.07;47.25;;;;;;;;;;4971356;28;20049;-79
2022/10/15 02:33:07;;;;;;;363.00;54.65;;;;;;;10.55;100.00;67946.06;4971742;28;20043;-77
2022/10/15 02:35:33;;;;;;;370.90;57.75;;;;;;;10.54;100.00;67939.59;4970372;28;20046;-77
2022/10/15 02:38:00;;;;;;;258.80;50.38;;;;;;;;;;4956549;28;20083;-78
2022/10/15 02:40:28;;;;;;;266.80;51.38;;;;;;;10.48;100.00;67929.56;4956108;28;20038;-76
2022/10/15 02:42:55;;;;;;;278.15;51.88;;;;;;;;;;4970409;28;20057;-77
2022/10/15 02:45:20;;;;;;;293.25;54.70;;;;;;;;;;4969662;28;20073;-76
2022/10/15 02:47:45;;;;;;;284.25;53.70;;;;;;;;;;4967874;28;20093;-77
2022/10/15 02:50:11;;;;;;;414.08;62.13;;;;;;;10.46;100.00;67930.53;4970559;28;20054;-76
2022/10/15 02:52:36;;;;;;;432.83;61.38;;;;;;;;;;4969453;28;20099;-76
2022/10/15 02:55:01;;;;;;;281.13;54.85;;;;;;;10.43;100.00;67927.13;4970265;28;20724;-76
2022/10/15 02:57:27;;;;;;;446.27;64.97;;;;;;;;;;4952840;28;20541;-77
2022/10/15 02:59:52;;;;;;;316.53;52.27;;;;;;;;;;4944032;28;20055;-77
2022/10/15 03:02:17;;;;;;;307.58;51.60;;;;;;;10.36;100.00;67925.06;4963095;28;20294;-79
2022/10/15 03:04:42;;;;;;;361.42;58.85;;;;;;;;;;4958708;28;20055;-75
2022/10/15 03:07:08;;;;;;;391.02;60.78;;;;;;;10.35;100.00;67923.94;4959614;28;20041;-77
2022/10/15 03:09:33;;;;;;;386.05;60.60;;;;;;;10.34;100.00;67914.81;4958168;28;20460;-77
2022/10/15 03:11:58;;;;;;;334.30;57.95;;;;;;;10.34;100.00;67922.22;4963346;28;20150;-79
2022/10/15 03:14:24;;;;;;;353.63;54.50;;;;;;;;;;4937469;28;20126;-77
2022/10/15 03:16:49;;;;;;;286.17;55.35;;;;;;;;;;4957746;28;20054;-78
2022/10/15 03:19:14;;;;;;;281.60;60.08;;;;;;;10.35;100.00;67923.38;4957086;28;20495;-77
2022/10/15 03:21:40;;;;;;;205.02;47.70;;;;;;;10.37;100.00;67925.63;4963742;28;20042;-78
2022/10/15 03:24:06;;;;;;;235.52;52.63;;;;;;;10.39;100.00;67922.59;4963424;28;20047;-77
2022/10/15 03:26:31;;;;;;;199.77;53.55;;;;;;;;;;4947871;28;20078;-76
2022/10/15 03:28:57;;;;;;;169.52;47.47;;;;;;;10.39;100.00;67923.16;4966821;28;20035;-77
2022/10/15 03:31:22;;;;;;;177.90;49.72;;;;;;;10.39;100.00;67922.59;4961689;28;20326;-78
2022/10/15 03:33:48;;;;;;;187.38;51.22;;;;;;;10.42;100.00;67925.44;4968187;28;20050;-76
2022/10/15 03:36:13;;;;;;;163.52;51.50;;;;;;;10.45;100.00;67928.84;4963892;28;20053;-76
2022/10/15 03:38:38;;;;;;;165.25;48.17;;;;;;;10.43;100.00;67927.13;4961059;28;20507;-76
2022/10/15 03:41:03;;;;;;;180.18;55.08;;;;;;;;;;4967056;28;20039;-76
2022/10/15 03:43:29;;;;;;;158.80;51.75;;;;;;;10.45;100.00;67934.72;4967896;28;20055;-78
2022/10/15 03:45:55;;;;;;;179.60;52.28;;;;;;;;;;4970412;28;20039;-78
2022/10/15 03:48:21;;;;;;;155.25;47.30;;;;;;;;;;4964019;28;20043;-78
2022/10/15 03:50:46;;;;;;;150.88;51.20;;;;;;;10.46;100.00;67935.84;4965295;28;20053;-75
2022/10/15 03:53:12;;;;;;;149.88;47.90;;;;;;;10.48;100.00;67932.81;4967232;28;20047;-78
2022/10/15 03:55:37;;;;;;;138.27;46.75;;;;;;;10.47;100.00;67928.44;4964344;28;20388;-78
2022/10/15 03:58:03;;;;;;;155.52;52.72;;;;;;;10.49;100.00;67933.94;4954972;28;20356;-78
2022/10/15 04:00:28;;;;;;;144.15;48.35;;;;;;;10.50;100.00;67940.41;4956673;28;20035;-79
2022/10/15 04:02:54;;;;;;;148.63;52.25;;;;;;;10.51;100.00;67930.31;4963725;28;20050;-78
2022/10/15 04:05:19;;;;;;;171.45;54.08;;;;;;;10.53;100.00;67938.47;4963800;28;20141;-79
2022/10/15 04:07:44;;;;;;;160.10;54.90;;;;;;;;;;4966103;28;20035;-76
2022/10/15 04:10:10;;;;;;;179.63;60.67;;;;;;;10.55;100.00;67938.06;4965112;28;20116;-76
2022/10/15 04:12:35;;;;;;;166.02;55.10;;;;;;;;;;4968732;28;20113;-78
2022/10/15 04:15:00;;;;;;;187.57;58.30;;;;;;;;;;4946064;28;20118;-78
2022/10/15 04:17:26;;;;;;;171.77;52.43;;;;;;;10.60;100.00;67951.72;4964593;28;20035;-78
2022/10/15 04:19:51;;;;;;;160.57;52.10;;;;;;;;;;4962782;28;20290;-76
2022/10/15 04:22:16;;;;;;;159.00;53.00;;;;;;;10.65;100.00;67948.31;4947159;28;20105;-78
2022/10/15 04:24:42;;;;;;;172.43;56.25;;;;;;;10.66;100.00;67952.09;4966318;28;20050;-79
2022/10/15 04:27:07;;;;;;;167.32;51.15;;;;;;;10.68;100.00;67960.25;4966037;28;20046;-80
2022/10/15 04:29:33;;;;;;;172.05;56.92;;;;;;;10.70;100.00;67956.63;4967567;28;20510;-79
2022/10/15 04:31:58;;;;;;;162.23;51.00;;;;;;;;;;4966310;28;20130;-80
2022/10/15 04:34:24;;;;;;;180.15;56.13;;;;;;;10.73;100.00;67957.94;4966307;28;20117;-79
2022/10/15 04:36:49;;;;;;;178.52;58.83;;;;;;;10.76;100.00;67969.34;4970341;28;20097;-78
2022/10/15 04:39:15;;;;;;;169.63;61.63;;;;;;;10.79;100.00;67972.75;4947411;28;20087;-78
2022/10/15 04:41:40;;;;;;;167.20;54.90;;;;;;;10.78;100.00;67966.25;4967677;28;20459;-76
2022/10/15 04:44:05;;;;;;;176.30;57.05;;;;;;;10.83;100.00;67971.38;4950685;28;20114;-78
2022/10/15 04:46:31;;;;;;;163.18;59.92;;;;;;;10.86;100.00;67974.78;4962785;28;20138;-78
2022/10/15 04:48:57;;;;;;;165.45;52.13;;;;;;;;;;4964662;28;20402;-76
2022/10/15 04:51:24;;;;;;;166.98;56.85;;;;;;;10.86;100.00;67972.13;4970054;28;20043;-78
2022/10/15 04:53:50;;;;;;;169.10;63.20;;;;;;;10.92;100.00;67986.34;4943068;28;20049;-77
2022/10/15 04:56:17;;;;;;;188.98;57.25;;;;;;;;;;4957789;28;20051;-78
2022/10/15 04:58:43;;;;;;;164.73;56.63;;;;;;;;;;4963171;28;20047;-79
2022/10/15 05:01:11;;;;;;;181.27;63.00;;;;;;;10.97;100.00;67992.03;4961091;28;20079;-79
2022/10/15 05:03:38;;;;;;;157.40;55.53;;;;;;;10.98;100.00;67988.41;4941977;28;20043;-77
2022/10/15 05:06:06;;;;;;;175.75;65.10;;;;;;;11.00;100.00;67990.69;4943754;28;20039;-76
2022/10/15 05:08:33;;;;;;;162.10;60.35;;;;;;;11.02;100.00;67992.94;4966551;28;20062;-76
2022/10/15 05:11:03;;;;;;;165.40;56.40;;;;;;;11.02;100.00;67992.38;4967487;28;20034;-79
2022/10/15 05:13:30;;;;;;;159.23;59.60;;;;;;;11.05;100.00;67996.34;4960230;28;20047;-76
2022/10/15 05:15:55;;;;;;;168.43;59.45;;;;;;;11.06;100.00;67996.91;4961793;28;20034;-77
2022/10/15 05:18:20;;;;;;;149.18;53.10;;;;;;;11.06;100.00;67996.91;4966229;28;20110;-78
2022/10/15 05:20:46;;;;;;;172.05;58.67;;;;;;;;;;4969270;28;20125;-80
2022/10/15 05:23:11;;;;;;;167.53;55.87;;;;;;;11.10;100.00;68001.44;4967383;28;20506;-79
2022/10/15 05:25:37;;;;;;;171.05;56.83;;;;;;;11.13;100.00;68004.84;4965605;28;20821;-78
2022/10/15 05:28:02;;;;;;;159.15;57.00;;;;;;;11.15;100.00;68007.13;4953014;28;20046;-76
2022/10/15 05:30:28;;;;;;;174.38;62.10;;;;;;;11.15;100.00;68007.13;4964843;28;20118;-79
2022/10/15 05:32:53;;;;;;;165.02;63.70;;;;;;;11.20;100.00;68012.25;4966681;28;20779;-79
2022/10/15 05:35:19;;;;;;;185.20;69.15;;;;;;;;;;4964134;28;20070;-78
2022/10/15 05:37:44;;;;;;;170.82;65.38;;;;;;;;;;4964266;28;20463;-79
2022/10/15 05:40:10;;;;;;;170.98;67.18;;;;;;;11.26;100.00;68019.63;4961033;28;20055;-77
2022/10/15 05:42:35;;;;;;;169.30;70.07;;;;;;;11.28;100.00;68021.34;4968554;28;20038;-79
2022/10/15 05:45:01;;;;;;;174.60;58.75;;;;;;;11.28;100.00;68021.91;4967925;28;20047;-79
2022/10/15 05:47:26;;;;;;;170.15;59.17;;;;;;;;;;4963126;28;20490;-78
2022/10/15 05:49:51;;;;;;;180.13;66.55;;;;;;;11.33;100.00;68027.00;4965488;28;20034;-77
2022/10/15 05:52:16;;;;;;;173.15;68.28;;;;;;;;;;4964997;28;20541;-79
2022/10/15 05:54:42;;;;;;;177.52;73.25;;;;;;;11.38;100.00;68032.69;4966839;28;20047;-78
2022/10/15 05:57:07;;;;;;;174.07;65.03;;;;;;;11.37;100.00;68031.56;4962714;28;20127;-76
2022/10/15 05:59:32;;;;;;;180.63;71.68;;;;;;;;;;4960207;28;20244;-77
2022/10/15 06:01:58;;;;;;;174.10;58.47;;;;;;;;;;4945582;28;20046;-77
2022/10/15 06:04:23;;;;;;;174.40;65.83;;;;;;;11.40;100.00;68034.97;4963159;28;20282;-78
2022/10/15 06:06:48;;;;;;;168.68;64.28;;;;;;;;;;4964466;28;20298;-77
2022/10/15 06:09:14;;;;;;;184.35;68.40;;;;;;;11.43;100.00;68037.78;4963833;28;20053;-79
2022/10/15 06:11:39;;;;;;;169.75;65.30;;;;;;;11.42;100.00;68037.22;4968046;28;20077;-78
2022/10/15 06:14:05;;;;;;;185.48;69.90;;;;;;;11.44;100.00;68036.81;4941014;28;20043;-77
2022/10/15 06:16:33;;;;;;;170.75;62.28;;;;;;;11.46;100.00;68041.19;4962453;28;20386;-75
2022/10/15 06:18:58;;;;;;;191.90;69.78;;;;;;;;;;4965209;28;20038;-77
2022/10/15 06:21:24;;;;;;;171.05;62.05;;;;;;;;;;4948614;28;20039;-77
2022/10/15 06:23:49;;;;;;;177.00;67.07;;;;;;;;;;4962194;28;20050;-79
2022/10/15 06:26:14;;;;;;;178.23;64.47;;;;;;;11.49;100.00;68050.50;4959792;28;20204;-79
2022/10/15 06:28:39;;;;;;;179.50;67.38;;;;;;;;;;4961658;28;21938;-78
2022/10/15 06:31:05;;;;;;;157.48;57.13;;;;;;;;;;4965131;28;20047;-77
2022/10/15 06:33:32;;;;;;;178.88;66.57;;;;;;;11.51;100.00;68047.44;4963725;28;20046;-79
2022/10/15 06:36:05;;;;;;;176.63;65.43;;;;;;;;;;4958693;28;20078;-78
2022/10/15 06:38:31;;;;;;;197.68;82.20;;;;;;;11.58;100.00;68054.25;4956136;28;20055;-78
2022/10/15 06:40:56;;;;;;;174.10;68.18;;;;;;;;;;4969623;28;20049;-79
2022/10/15 06:43:22;;;;;;;189.50;66.47;;;;;;;;;;4959343;28;20064;-78
2022/10/15 06:45:47;;;;;;;174.50;63.88;;;;;;;;;;4949940;28;20046;-79
2022/10/15 06:48:12;;;;;;;180.07;69.22;;;;;;;11.64;100.00;68061.06;4945851;28;20043;-77
2022/10/15 06:50:38;;;;;;;177.30;65.05;;;;;;;11.67;100.00;68070.38;4958768;28;20059;-76
2022/10/15 06:53:04;;;;;;;181.77;69.72;;;;;;;11.72;100.00;68075.50;4959600;28;20597;-79
2022/10/15 06:55:30;;;;;;;176.23;64.32;;;;;;;11.73;100.00;68063.28;4958901;28;20066;-79
2022/10/15 06:57:56;;;;;;;193.68;75.35;;;;;;;11.76;100.00;68074.69;4969407;28;20121;-78
2022/10/15 07:00:22;;;;;;;183.55;66.68;;;;;;;;;;4967983;28;20035;-79
2022/10/15 07:02:48;;;;;;;184.65;68.32;;;;;;;11.80;100.00;68076.59;4964036;28;20098;-79
2022/10/15 07:05:13;;;;;;;177.68;64.88;;;;;;;11.85;100.00;68081.69;4963873;28;20062;-78
2022/10/15 07:07:39;;;;;;;195.90;68.43;;;;;;;11.87;100.00;68086.66;4971694;28;20051;-75
2022/10/15 07:10:04;;;;;;;184.40;75.28;;;;;;;11.95;100.00;68095.75;4974627;28;20039;-78
2022/10/15 07:12:30;;;;;;;193.85;69.10;;;;;;;11.96;100.00;68096.88;4956334;28;20480;-79
2022/10/15 07:14:55;;;;;;;197.70;73.63;;;;;;;11.99;100.00;68100.28;4961807;28;20043;-77
2022/10/15 07:17:20;;;;;;;188.32;71.85;;;;;;;12.03;100.00;68110.16;4955107;28;20112;-77
2022/10/15 07:19:46;;;;;;;185.75;68.00;;;;;;;;;;4957146;28;20046;-77
2022/10/15 07:22:11;;;;;;;176.52;69.22;;;;;;;12.06;100.00;68107.69;4967302;28;20051;-75
2022/10/15 07:24:36;;;;;;;175.15;63.95;;;;;;;12.07;100.00;68106.13;4968165;28;20051;-78
2022/10/15 07:27:02;;;;;;;166.35;59.03;;;;;;;12.11;100.00;68119.25;4964137;28;20426;-77
2022/10/15 07:29:27;;;;;;;182.18;62.97;;;;;;;12.14;100.00;68122.09;4961215;28;20039;-76
2022/10/15 07:31:53;;;;;;;185.43;70.03;;;;;;;12.16;100.00;68116.34;4942255;28;20523;-79
2022/10/15 07:34:18;;;;;;;171.68;66.07;;;;;;;;;;4966183;28;20072;-79
2022/10/15 07:36:44;;;;;;;174.10;71.60;;;;;;;12.20;100.00;68128.91;4960770;28;20055;-77
2022/10/15 07:39:09;;;;;;;169.13;72.55;;;;;;;12.21;100.00;68124.72;4974514;28;20054;-78
2022/10/15 07:41:35;;;;;;;168.30;59.22;;;;;;;12.23;100.00;68127.00;4968440;28;20098;-76
2022/10/15 07:44:01;;;;;;;175.40;63.63;;;;;;;12.25;100.00;68123.91;4965452;28;20080;-76
2022/10/15 07:46:26;;;;;;;171.65;72.93;;;;;;;12.28;100.00;68127.31;4966826;28;20118;-77
2022/10/15 07:48:52;;;;;;;165.30;69.07;;;;;;;12.28;100.00;68129.41;4968008;28;20103;-79
2022/10/15 07:51:17;;;;;;;160.13;60.75;;;;;;;12.29;100.00;68133.81;4968596;28;20474;-79
2022/10/15 07:53:43;;;;;;;164.13;64.82;;;;;;;12.30;100.00;68134.94;4971363;28;20037;-77
2022/10/15 07:56:12;;;;;;;170.25;58.95;;;;;;;12.34;100.00;68138.91;4973214;28;20058;-79
2022/10/15 07:58:38;;;;;;;;;;;;;;;12.37;100.00;68142.91;4959681;28;20070;-78
2022/10/15 08:01:05;;;;;;;168.40;70.47;;;;;;;12.29;100.00;68131.13;4953773;28;19914;-78
2022/10/15 08:03:30;;;;;;;154.55;64.82;;;;;;;12.30;100.00;68134.38;4965570;28;20046;-78
2022/10/15 08:06:00;;;;;;;142.57;62.45;;;;;;;12.30;100.00;68134.94;4968309;28;20039;-80
2022/10/15 08:08:26;;;;;;;136.98;59.67;;;;;;;;;;4944754;28;20126;-77
2022/10/15 09:31:09;;;;;;;104.70;41.75;;;;;;;13.31;100.00;68252.84;5964839;23;20024;-79
2022/10/15 09:33:41;;;;;;;95.80;41.75;;;;;;;13.41;100.00;68257.75;4965847;28;20043;-79
2022/10/15 09:36:35;;;;;;;88.38;37.95;;;;;;;13.47;100.00;68259.22;4965066;28;20430;-77
2022/10/15 09:39:04;;;;;;;86.03;40.70;;;;;;;13.51;100.00;68269.09;4963074;28;20051;-77
2022/10/15 09:41:50;;;;;;;83.50;41.55;;;;;;;13.59;100.00;68275.53;4971307;28;20053;-78
2022/10/15 09:44:17;;;;;;;74.30;38.75;;;;;;;;;;4964783;28;20556;-78
2022/10/15 09:46:46;;;;;;;81.45;38.22;;;;;;;;;;4970652;28;20093;-77
2022/10/15 09:49:17;;;;;;;73.57;38.58;;;;;;;;;;4944671;28;20047;-78
2022/10/15 09:51:54;;;;;;;72.72;39.78;;;;;;;13.91;100.00;68318.84;4977299;28;20047;-77
2022/10/15 09:54:29;;;;;;;64.88;34.50;;;;;;;13.95;100.00;68318.03;4969646;28;20146;-77
2022/10/15 09:56:56;;;;;;;68.22;37.47;;;;;;;14.05;100.00;68326.72;4966357;28;20038;-77
2022/10/15 09:59:24;;;;;;;60.38;36.55;;;;;;;14.25;100.00;68348.34;4971770;28;20042;-78
2022/10/15 10:01:55;;;;;;;56.53;32.25;;;;;;;14.26;100.00;68349.50;4974125;28;20053;-76
2022/10/15 10:04:21;;;;;;;53.88;32.13;;;;;;;14.35;100.00;68360.28;4979351;28;20061;-78
2022/10/15 10:06:51;;;;;;;52.22;31.17;;;;;;;14.43;100.00;68368.84;4954861;28;20478;-77
2022/10/15 10:09:22;;;;;;;57.47;31.75;;;;;;;14.50;100.00;68374.13;4950027;28;20043;-77
2022/10/15 10:11:57;;;;;;;48.85;30.90;;;;;;;14.56;100.00;68385.78;4971810;28;20512;-76
2022/10/15 10:14:29;;;;;;;49.22;31.70;;;;;;;14.61;100.00;68392.03;4971761;28;20509;-78
2022/10/15 10:17:07;;;;;;;47.88;30.98;;;;;;;14.68;100.00;68396.19;4957325;28;20057;-78
2022/10/15 10:19:32;;;;;;;44.70;28.52;;;;;;;14.75;100.00;68404.16;4978981;28;20038;-77
2022/10/15 10:22:19;;;;;;;40.10;27.30;;;;;;;14.79;100.00;68408.72;4966747;28;20039;-78
2022/10/15 10:24:45;;;;;;;37.85;26.00;;;;;;;14.78;100.00;68410.81;4967545;28;20051;-77
2022/10/15 10:27:18;;;;;;;40.13;27.08;;;;;;;14.87;100.00;68420.50;4975838;28;20038;-77
2022/10/15 10:29:53;;;;;;;41.15;27.85;;;;;;;14.99;100.00;68434.16;4964679;28;20593;-78
2022/10/15 10:32:22;;;;;;;35.92;23.63;;;;;;;15.08;100.00;68441.16;4972002;28;20130;-77
2022/10/15 10:34:47;;;;;;;;;;;;;;;15.10;100.00;68444.03;4955389;28;20055;-78
2022/10/15 10:37:13;;;;;;;35.80;24.70;;;;;;;15.09;100.00;68440.19;4945075;28;19922;-77
2022/10/15 10:39:38;;;;;;;29.00;19.27;;;;;;;15.12;100.00;68446.28;4963260;28;20049;-77
2022/10/15 10:42:24;;;;;;;26.15;19.25;;;;;;;15.28;100.00;68463.94;4965227;28;20069;-78
2022/10/15 10:44:52;;;;;;;21.88;17.15;;;;;;;15.33;100.00;68472.31;4963657;28;20047;-78
2022/10/15 10:47:22;;;;;;;22.73;14.43;;;;;;;15.34;100.00;68472.88;4965255;28;20042;-77
2022/10/15 10:49:56;;;;;;;18.42;14.45;;;;;;;15.42;100.00;68482.00;4960973;28;20054;-77
2022/10/15 10:52:27;;;;;;;19.15;13.80;;;;;;;15.48;100.00;68485.59;4946162;28;20246;-77
2022/10/15 10:55:24;;;;;;;15.68;11.30;;;;;;;15.57;100.00;68499.09;4952223;28;20061;-78
2022/10/15 10:57:53;;;;;;;14.50;11.25;;;;;;;15.63;100.00;68502.09;4946336;28;20042;-76
2022/10/15 11:00:18;;;;;;;13.65;10.00;;;;;;;15.67;100.00;68507.22;4965735;28;20101;-78
2022/10/15 11:02:43;;;;;;;15.05;11.88;;;;;;;15.74;100.00;68517.91;4967485;28;20090;-78
2022/10/15 11:05:12;;;;;;;13.18;9.27;;;;;;;15.78;100.00;68521.91;4965176;28;20331;-75
2022/10/15 11:07:58;;;;;;;12.97;9.83;;;;;;;15.75;100.00;68519.03;4965480;28;20058;-78
2022/10/15 11:10:32;;;;;;;11.45;8.60;;;;;;;;;;4966889;28;20035;-77
2022/10/15 11:13:27;;;;;;;10.65;7.82;;;;;;;15.71;100.00;68511.81;4959270;28;20038;-79
2022/10/15 11:15:59;;;;;;;11.02;8.98;;;;;;;15.64;100.00;68506.50;4963582;28;20034;-78
2022/10/15 11:18:51;;;;;;;12.35;8.65;;;;;;;;;;4965750;28;20139;-78
2022/10/15 11:22:03;;;;;;;10.90;8.40;;;;;;;15.37;100.00;68470.38;4939837;28;20455;-77
2022/10/15 11:24:46;;;;;;;11.05;8.65;;;;;;;15.28;100.00;68463.38;4944114;28;20043;-77
2022/10/15 11:27:26;;;;;;;12.35;9.77;;;;;;;15.25;100.00;68460.53;4948269;28;20042;-77
2022/10/15 11:30:13;;;;;;;14.93;10.90;;;;;;;15.25;100.00;68459.97;4963668;28;20097;-78
2022/10/15 11:33:04;;;;;;;15.18;11.63;;;;;;;15.22;100.00;68454.44;4966096;28;20645;-75
2022/10/15 11:35:42;;;;;;;14.80;9.88;;;;;;;15.15;100.00;68446.44;4965094;28;20056;-77
2022/10/15 11:38:52;;;;;;;14.27;11.03;;;;;;;15.11;100.00;68447.25;4947775;28;20042;-78
2022/10/15 11:41:21;;;;;;;13.32;9.25;;;;;;;15.04;100.00;68437.16;4961869;28;20046;-77
2022/10/15 11:44:13;;;;;;;11.90;7.90;;;;;;;15.01;100.00;68433.75;4967334;28;20532;-77
2022/10/15 11:47:03;;;;;;;12.38;9.20;;;;;;;15.00;100.00;68429.38;4965792;28;20093;-77
2022/10/15 11:49:50;;;;;;;11.30;8.93;;;;;;;14.98;100.00;68429.78;4968852;28;20046;-77
2022/10/15 11:52:25;;;;;;;10.95;8.88;;;;;;;;;;4972332;28;20093;-77
2022/10/15 11:55:22;;;;;;;9.90;7.47;;;;;;;14.89;100.00;68420.66;4966051;28;20067;-77
2022/10/15 11:57:48;;;;;;;11.93;8.75;;;;;;;;;;4961812;28;20502;-77
2022/10/15 12:00:22;;;;;;;11.13;8.82;;;;;;;14.92;100.00;68431.53;4967346;28;20043;-77
2022/10/15 12:02:49;;;;;;;13.70;9.35;;;;;;;14.89;100.00;68423.34;4975085;28;20050;-76
2022/10/15 12:05:20;;;;;;;11.93;10.13;;;;;;;14.89;100.00;68428.69;4991589;28;20497;-77
2022/10/15 12:07:48;;;;;;;14.20;10.88;;;;;;;14.91;100.00;68425.06;4975245;28;20054;-76
2022/10/15 12:10:29;;;;;;;13.23;10.67;;;;;;;14.88;100.00;68418.97;4972331;28;20038;-76
2022/10/15 12:13:07;;;;;;;14.10;10.73;;;;;;;14.86;100.00;68419.91;4972510;28;20038;-77
2022/10/15 12:15:59;;;;;;;12.73;10.65;;;;;;;14.88;100.00;68421.63;4972089;28;20316;-76
2022/10/15 12:19:16;;;;;;;12.70;11.10;;;;;;;14.85;100.00;68413.44;4971101;28;20030;-77
2022/10/15 12:21:53;;;;;;;13.73;11.52;;;;;;;14.80;100.00;68407.72;4931703;28;20047;-77
2022/10/15 12:24:36;;;;;;;12.80;11.05;;;;;;;14.81;100.00;68408.31;4971299;28;20237;-77
2022/10/15 12:27:17;;;;;;;12.52;11.10;;;;;;;14.82;100.00;68414.81;4944139;28;20051;-77
2022/10/15 12:29:43;;;;;;;12.43;11.05;;;;;;;14.83;100.00;68415.94;4964666;28;20034;-76
2022/10/15 12:32:23;;;;;;;14.13;12.70;;;;;;;14.87;100.00;68420.50;4973661;28;20050;-77
2022/10/15 12:34:54;;;;;;;14.13;12.60;;;;;;;14.85;100.00;68416.13;4967518;28;20043;-76
2022/10/15 12:37:23;;;;;;;16.90;15.20;;;;;;;14.85;100.00;68418.22;4967596;28;20047;-76
2022/10/15 12:39:55;;;;;;;16.58;14.52;;;;;;;14.89;100.00;68422.78;4970304;28;20042;-77
2022/10/15 12:42:22;;;;;;;17.75;14.57;;;;;;;;;;4967213;28;20051;-76
2022/10/15 12:44:47;;;;;;;17.33;15.18;;;;;;;;;;4968341;28;20102;-77
2022/10/15 12:47:13;;;;;;;16.80;15.00;;;;;;;14.93;100.00;68424.06;4968592;28;20157;-76
2022/10/15 12:49:38;;;;;;;17.67;15.75;;;;;;;14.94;100.00;68428.47;4954414;28;21725;-77
2022/10/15 12:52:42;;;;;;;17.55;14.73;;;;;;;14.95;100.00;68429.03;4970214;28;20042;-76
2022/10/15 12:55:26;;;;;;;18.75;16.75;;;;;;;;;;4947628;28;20034;-77
2022/10/15 12:57:54;;;;;;;21.25;19.05;;;;;;;15.00;100.00;68429.94;4968684;28;20816;-76
2022/10/15 13:00:34;;;;;;;20.58;18.30;;;;;;;15.02;100.00;68432.22;4970552;28;20457;-76
2022/10/15 13:03:21;;;;;;;19.95;17.85;;;;;;;15.07;100.00;68440.00;4965298;28;20966;-77
2022/10/15 13:05:47;;;;;;;20.80;18.17;;;;;;;15.10;100.00;68446.09;4969661;28;20039;-77
2022/10/15 13:08:19;;;;;;;21.45;19.13;;;;;;;15.14;100.00;68444.75;4952475;28;20529;-77
2022/10/15 13:10:50;;;;;;;21.73;19.42;;;;;;;15.18;100.00;68452.53;4973389;28;20795;-77
2022/10/15 13:13:20;;;;;;;20.90;19.00;;;;;;;15.23;100.00;68452.88;4969412;28;20043;-77
2022/10/15 13:15:57;;;;;;;16.50;15.00;;;;;;;15.28;100.00;68466.06;4974044;28;20081;-77
2022/10/15 13:18:23;;;;;;;17.17;15.55;;;;;;;15.32;100.00;68471.16;4972695;28;20049;-76
2022/10/15 13:20:53;;;;;;;16.33;14.73;;;;;;;15.39;100.00;68473.22;4970485;28;20045;-77
2022/10/15 13:23:21;;;;;;;17.23;15.57;;;;;;;15.45;100.00;68480.06;4974657;28;20038;-76
2022/10/15 13:25:51;;;;;;;15.50;12.75;;;;;;;15.47;100.00;68487.69;4970080;28;20069;-76
2022/10/15 13:28:30;;;;;;;15.07;13.65;;;;;;;15.53;100.00;68491.28;4975580;28;20137;-77
2022/10/15 13:30:57;;;;;;;15.32;13.82;;;;;;;15.56;100.00;68497.38;4970036;28;20065;-77